Map

Track Data

SID SEASON NUMBER BASIN SUBBASIN NAME ISO_TIME NATURE LAT LON WMO_WIND WMO_PRES WMO_AGENCY TRACK_TYPE DIST2LAND LANDFALL IFLAG USA_AGENCY USA_ATCF_ID USA_LAT USA_LON USA_RECORD USA_STATUS USA_WIND USA_PRES USA_SSHS USA_R34_NE USA_R34_SE USA_R34_SW USA_R34_NW USA_R50_NE USA_R50_SE USA_R50_SW USA_R50_NW USA_R64_NE USA_R64_SE USA_R64_SW USA_R64_NW USA_POCI USA_ROCI USA_RMW USA_EYE TOKYO_LAT TOKYO_LON TOKYO_GRADE TOKYO_WIND TOKYO_PRES TOKYO_R50_DIR TOKYO_R50_LONG TOKYO_R50_SHORT TOKYO_R30_DIR TOKYO_R30_LONG TOKYO_R30_SHORT TOKYO_LAND CMA_LAT CMA_LON CMA_CAT CMA_WIND CMA_PRES HKO_LAT HKO_LON HKO_CAT HKO_WIND HKO_PRES NEWDELHI_LAT NEWDELHI_LON NEWDELHI_GRADE NEWDELHI_WIND NEWDELHI_PRES NEWDELHI_CI NEWDELHI_DP NEWDELHI_POCI REUNION_LAT REUNION_LON REUNION_TYPE REUNION_WIND REUNION_PRES REUNION_TNUM REUNION_CI REUNION_RMW REUNION_R34_NE REUNION_R34_SE REUNION_R34_SW REUNION_R34_NW REUNION_R50_NE REUNION_R50_SE REUNION_R50_SW REUNION_R50_NW REUNION_R64_NE REUNION_R64_SE REUNION_R64_SW REUNION_R64_NW BOM_LAT BOM_LON BOM_TYPE BOM_WIND BOM_PRES BOM_TNUM BOM_CI BOM_RMW BOM_R34_NE BOM_R34_SE BOM_R34_SW BOM_R34_NW BOM_R50_NE BOM_R50_SE BOM_R50_SW BOM_R50_NW BOM_R64_NE BOM_R64_SE BOM_R64_SW BOM_R64_NW BOM_ROCI BOM_POCI BOM_EYE BOM_POS_METHOD BOM_PRES_METHOD NADI_LAT NADI_LON NADI_CAT NADI_WIND NADI_PRES WELLINGTON_LAT WELLINGTON_LON WELLINGTON_WIND WELLINGTON_PRES DS824_LAT DS824_LON DS824_STAGE DS824_WIND DS824_PRES TD9636_LAT TD9636_LON TD9636_STAGE TD9636_WIND TD9636_PRES TD9635_LAT TD9635_LON TD9635_WIND TD9635_PRES TD9635_ROCI NEUMANN_LAT NEUMANN_LON NEUMANN_CLASS NEUMANN_WIND NEUMANN_PRES MLC_LAT MLC_LON MLC_CLASS MLC_WIND MLC_PRES USA_GUST BOM_GUST BOM_GUST_PER REUNION_GUST REUNION_GUST_PER USA_SEAHGT USA_SEARAD_NE USA_SEARAD_SE USA_SEARAD_SW USA_SEARAD_NW STORM_SPEED STORM_DIR
1906001S14066 1906 2 SI MM NOT_NAMED 1905-12-31 18:00:00 NR -14.4000 65.5000 main 1045 1045 __________O___ -1 -14.4000 65.5000 7 1 68
1906001S14066 1906 2 SI MM NOT_NAMED 1905-12-31 21:00:00 NR -14.3849 65.5452 main 1045 1045 __________P___ -1 -14.3849 65.5452 7 0 114
1906001S14066 1906 2 SI MM NOT_NAMED 1906-01-01 00:00:00 NR -14.4159 65.5324 main 1045 1029 __________P___ -1 -14.4159 65.5324 7 2 221
1906001S14066 1906 2 SI MM NOT_NAMED 1906-01-01 03:00:00 NR -14.5390 65.4035 main 1029 983 __________P___ -1 -14.5390 65.4035 7 6 227
1906001S14066 1906 2 SI MM NOT_NAMED 1906-01-01 06:00:00 NR -14.8000 65.1000 main 983 913 __________O___ -1 -14.8000 65.1000 7 10 229
1906001S14066 1906 2 SI MM NOT_NAMED 1906-01-01 09:00:00 NR -15.2297 64.5911 main 913 821 __________P___ -1 -15.2297 64.5911 7 15 228
1906001S14066 1906 2 SI MM NOT_NAMED 1906-01-01 12:00:00 NR -15.8004 63.9615 main 821 730 __________P___ -1 -15.8004 63.9615 7 17 224
1906001S14066 1906 2 SI MM NOT_NAMED 1906-01-01 15:00:00 NR -16.4705 63.3257 main 715 627 __________P___ -1 -16.4705 63.3257 7 18 219
1906001S14066 1906 2 SI MM NOT_NAMED 1906-01-01 18:00:00 NR -17.2000 62.8000 main 627 561 __________O___ -1 -17.2000 62.8000 7 17 208
1906001S14066 1906 2 SI MM NOT_NAMED 1906-01-01 21:00:00 NR -17.9762 62.4725 main 556 504 __________P___ -1 -17.9762 62.4725 7 17 197
1906001S14066 1906 2 SI MM NOT_NAMED 1906-01-02 00:00:00 NR -18.7934 62.2803 main 500 468 __________P___ -1 -18.7934 62.2803 7 16 188
1906001S14066 1906 2 SI MM NOT_NAMED 1906-01-02 03:00:00 NR -19.5889 62.2229 main 466 460 __________P___ -1 -19.5889 62.2229 7 15 0
1906001S14066 1906 2 SI MM NOT_NAMED 1906-01-02 06:00:00 NR -20.3000 62.3000 main 469 469 __________O___ -1 -20.3000 62.3000 7 13 168
1906001S14066 1906 2 SI MM NOT_NAMED 1906-01-02 09:00:00 NR -20.8559 62.5059 main 493 493 __________P___ -1 -20.8559 62.5059 7 11 154
1906001S14066 1906 2 SI MM NOT_NAMED 1906-01-02 12:00:00 NR -21.3206 62.8353 main 531 531 __________P___ -1 -21.3206 62.8353 7 11 143
1906001S14066 1906 2 SI MM NOT_NAMED 1906-01-02 15:00:00 NR -21.7248 63.2221 main 581 581 __________P___ -1 -21.7248 63.2221 7 11 138
1906001S14066 1906 2 SI MM NOT_NAMED 1906-01-02 18:00:00 NR -22.1000 63.6000 main 633 633 __________O___ -1 -22.1000 63.6000 7 10 139
1906001S14066 1906 2 SI MM NOT_NAMED 1906-01-02 21:00:00 NR -22.4725 63.9162 main 677 677 __________P___ -1 -22.4725 63.9162 7 9 144
1906001S14066 1906 2 SI MM NOT_NAMED 1906-01-03 00:00:00 NR -22.8471 64.1755 main 718 718 __________P___ -1 -22.8471 64.1755 7 9 150
1906001S14066 1906 2 SI MM NOT_NAMED 1906-01-03 03:00:00 NR -23.2232 64.3969 main 754 754 __________P___ -1 -23.2232 64.3969 7 9 153
1906001S14066 1906 2 SI MM NOT_NAMED 1906-01-03 06:00:00 NR -23.6000 64.6000 main 790 __________O___ -1 -23.6000 64.6000 7 8 154

About IBTrACS Database

This database is a web-friendly format of International Best Track Archive for Climate Stewardship (IBTrACS), a global best track data archive curated by NOAA dating back to 1842.

Updated: 2021-12-01